Time;durP1;ratioP1;P1;durP2;ratioP2;P2;SDS_P1;SDS_P2;PMS_P1;PMS_P2;Temp;Humidity;BMP_temperature;BMP_pressure;BME280_temperature;BME280_humidity;BME280_pressure;Samples;Min_cycle;Max_cycle;Signal;HPM_P1;HPM_P2
2022/12/08 00:01:17;;;;;;;1.50;0.50;;;4.40;99.90;;;;;;6163387;23;20078;-89
2022/12/08 00:03:56;;;;;;;1.35;0.60;;;5.10;99.90;;;;;;6189358;23;20016;-87
2022/12/08 00:09:40;;;;;;;;;;;;;;;;;;;;;
2022/12/08 00:12:15;;;;;;;4.20;1.08;;;4.30;99.90;;;;;;6242426;23;20024;-88
2022/12/08 00:14:48;;;;;;;7.55;1.30;;;4.40;99.90;;;;;;6188040;23;20031;-88
2022/12/08 00:17:39;;;;;;;3.95;1.45;;;4.50;99.90;;;;;;6188931;23;20013;-88
2022/12/08 00:20:20;;;;;;;;;;;;;;;;;;;;;
2022/12/08 00:23:09;;;;;;;3.60;0.80;;;4.30;99.90;;;;;;6214529;23;20016;-88
2022/12/08 00:25:45;;;;;;;2.17;0.80;;;4.30;99.90;;;;;;6189902;23;20056;-86
2022/12/08 00:28:14;;;;;;;2.38;0.82;;;4.30;99.90;;;;;;6213948;23;20024;-88
2022/12/08 00:30:52;;;;;;;4.93;1.02;;;4.20;99.90;;;;;;6189259;23;20455;-87
2022/12/08 00:33:41;;;;;;;4.43;1.05;;;4.50;99.90;;;;;;6189026;23;20077;-90
2022/12/08 00:36:26;;;;;;;6.22;0.98;;;4.30;99.90;;;;;;6187548;23;20024;-89
2022/12/08 00:39:19;;;;;;;5.15;0.93;;;4.20;99.90;;;;;;6187315;23;20047;-88
2022/12/08 00:42:10;;;;;;;4.53;1.20;;;2.40;99.90;;;;;;6212072;23;20501;-89
2022/12/08 00:44:37;;;;;;;7.22;1.00;;;3.40;99.90;;;;;;6186133;23;20024;-88
2022/12/08 00:47:18;;;;;;;6.60;1.30;;;3.70;99.90;;;;;;6188270;23;20390;-88
2022/12/08 00:49:57;;;;;;;3.50;0.80;;;3.50;99.90;;;;;;6213937;23;20503;-88
2022/12/08 00:52:29;;;;;;;4.85;1.25;;;2.50;99.90;;;;;;6185346;23;20026;-87
2022/12/08 00:55:22;;;;;;;;;;;;;;;;;;;;;
2022/12/08 00:58:01;;;;;;;5.25;0.90;;;3.60;99.90;;;;;;6216901;23;20109;-86
2022/12/08 01:00:33;;;;;;;1.35;0.55;;;3.60;99.90;;;;;;6190088;23;20016;-87
2022/12/08 01:03:03;;;;;;;3.08;0.80;;;4.70;99.90;;;;;;6189480;23;20016;-87
2022/12/08 01:05:31;;;;;;;1.60;0.55;;;3.50;99.90;;;;;;6188524;23;20453;-88
2022/12/08 01:08:09;;;;;;;3.33;0.50;;;3.90;99.90;;;;;;6192538;23;20016;-86
2022/12/08 01:10:40;;;;;;;1.83;0.70;;;3.80;99.90;;;;;;6187586;23;20016;-87
2022/12/08 01:13:10;;;;;;;2.42;0.70;;;3.50;99.90;;;;;;6186665;23;20317;-86
2022/12/08 01:15:58;;;;;;;1.40;0.50;;;3.70;99.90;;;;;;6214875;23;20424;-88
2022/12/08 01:18:42;;;;;;;1.15;0.50;;;3.50;99.90;;;;;;6212018;23;20020;-87
2022/12/08 01:21:10;;;;;;;1.70;0.60;;;3.40;99.90;;;;;;6186673;23;20024;-86
2022/12/08 01:23:53;;;;;;;2.17;0.60;;;3.40;99.90;;;;;;6212525;23;20078;-86
2022/12/08 01:26:29;;;;;;;2.15;0.50;;;3.40;99.90;;;;;;6186394;23;20051;-90
2022/12/08 01:28:59;;;;;;;1.85;0.75;;;3.40;99.90;;;;;;6213902;23;20020;-87
2022/12/08 01:31:29;;;;;;;3.95;0.82;;;3.40;99.90;;;;;;6188748;23;20020;-87
2022/12/08 01:34:03;;;;;;;1.70;0.85;;;2.60;99.90;;;;;;6188754;23;20584;-88
2022/12/08 01:36:35;;;;;;;1.40;0.60;;;3.50;99.90;;;;;;6215789;23;20449;-88
2022/12/08 01:39:23;;;;;;;1.77;0.80;;;3.60;99.90;;;;;;6189614;23;20039;-87
2022/12/08 01:42:18;;;;;;;2.90;0.50;;;3.50;99.90;;;;;;6188511;23;20109;-88
2022/12/08 01:45:04;;;;;;;1.90;0.65;;;3.50;99.90;;;;;;6215064;23;20024;-89
2022/12/08 01:47:51;;;;;;;0.40;0.30;;;3.60;99.90;;;;;;6214762;23;20372;-87
2022/12/08 01:50:29;;;;;;;1.40;0.50;;;3.80;99.90;;;;;;6188704;23;20031;-89
2022/12/08 01:53:28;;;;;;;1.33;0.40;;;3.70;99.90;;;;;;6188879;23;20030;-86
2022/12/08 01:56:11;;;;;;;0.68;0.50;;;3.50;99.90;;;;;;6164332;23;20039;-88
2022/12/08 01:58:47;;;;;;;3.38;0.40;;;3.40;99.90;;;;;;6182167;23;20791;-90
2022/12/08 02:01:23;;;;;;;0.63;0.50;;;3.80;99.90;;;;;;6160702;23;20020;-89
2022/12/08 02:04:02;;;;;;;1.33;0.70;;;3.40;99.90;;;;;;6136013;23;20881;-87
2022/12/08 02:06:54;;;;;;;2.65;0.60;;;3.40;99.90;;;;;;6156355;23;20023;-88
2022/12/08 02:09:23;;;;;;;2.90;0.80;;;3.40;99.90;;;;;;6158377;23;20055;-90
2022/12/08 02:12:17;;;;;;;5.28;1.20;;;2.10;99.90;;;;;;6187049;23;20020;-88
2022/12/08 02:15:04;;;;;;;2.53;0.85;;;3.50;99.90;;;;;;6159506;23;20017;-88
2022/12/08 02:17:41;;;;;;;2.67;0.70;;;3.60;99.90;;;;;;6159092;23;20025;-88
2022/12/08 02:20:48;;;;;;;3.92;0.82;;;3.70;99.90;;;;;;6184391;23;20020;-86
2022/12/08 02:23:38;;;;;;;2.78;0.88;;;3.60;99.90;;;;;;6159824;23;20107;-87
2022/12/08 02:26:34;;;;;;;4.88;1.00;;;3.80;99.90;;;;;;6134655;23;20025;-87
2022/12/08 02:29:21;;;;;;;2.88;0.70;;;3.40;99.90;;;;;;6157563;23;20038;-87
2022/12/08 02:32:09;;;;;;;4.68;0.70;;;3.40;99.90;;;;;;6158705;23;20021;-88
2022/12/08 02:35:21;;;;;;;8.75;1.50;;;3.30;99.90;;;;;;6185418;23;20129;-87
2022/12/08 02:38:21;;;;;;;5.23;0.97;;;3.60;99.90;;;;;;6012791;23;20022;-87
2022/12/08 02:41:24;;;;;;;3.47;1.10;;;4.90;99.90;;;;;;6159455;23;20024;-87
2022/12/08 02:44:12;;;;;;;1.95;0.70;;;2.00;99.90;;;;;;6161051;23;20494;-88
2022/12/08 02:47:00;;;;;;;5.25;0.95;;;3.40;99.90;;;;;;6159137;23;20315;-88
2022/12/08 02:49:34;;;;;;;3.33;1.08;;;4.90;99.90;;;;;;6181554;23;20021;-89
2022/12/08 02:52:26;;;;;;;3.00;0.90;;;3.60;99.90;;;;;;6160421;23;20056;-86
2022/12/08 02:55:22;;;;;;;2.53;0.93;;;3.50;99.90;;;;;;6184628;23;20518;-86
2022/12/08 02:58:34;;;;;;;1.58;0.77;;;3.40;99.90;;;;;;6200550;23;20451;-87
2022/12/08 03:01:38;;;;;;;0.95;0.52;;;3.40;99.90;;;;;;6187527;23;20063;-89
2022/12/08 03:04:32;;;;;;;;;;;;;;;;;;;;;
2022/12/08 03:07:05;;;;;;;3.17;0.77;;;3.80;99.90;;;;;;6211362;23;20016;-88
2022/12/08 03:09:59;;;;;;;2.92;0.60;;;3.40;99.90;;;;;;6186217;23;20042;-85
2022/12/08 03:12:33;;;;;;;2.97;0.73;;;3.20;99.90;;;;;;6187998;23;20020;-90
2022/12/08 03:15:13;;;;;;;4.57;0.80;;;3.20;99.90;;;;;;6188112;23;20030;-86
2022/12/08 03:17:47;;;;;;;1.80;0.85;;;3.30;99.90;;;;;;6187490;23;20019;-86
2022/12/08 03:20:32;;;;;;;;;;;;;;;;;;;;;
2022/12/08 03:23:04;;;;;;;6.22;0.85;;;3.50;99.90;;;;;;6213141;23;20100;-87
2022/12/08 03:25:38;;;;;;;1.77;0.90;;;4.90;99.90;;;;;;6187489;23;20024;-87
2022/12/08 03:28:07;;;;;;;4.40;0.68;;;3.30;99.90;;;;;;6189237;23;20479;-86
2022/12/08 03:30:54;;;;;;;3.65;0.95;;;3.30;99.90;;;;;;6189090;23;20016;-86
2022/12/08 03:33:33;;;;;;;1.65;0.60;;;3.30;99.90;;;;;;6189394;23;20035;-89
2022/12/08 03:36:03;;;;;;;1.55;0.57;;;3.60;99.90;;;;;;6188654;23;20371;-87
2022/12/08 03:38:45;;;;;;;3.65;0.80;;;3.30;99.90;;;;;;6187236;23;20035;-89
2022/12/08 03:41:17;;;;;;;2.95;0.70;;;5.20;99.90;;;;;;6179259;23;20439;-86
2022/12/08 03:44:02;;;;;;;2.33;0.80;;;4.50;99.90;;;;;;6188074;23;20024;-86
2022/12/08 03:46:39;;;;;;;3.60;0.90;;;4.70;99.90;;;;;;6190408;23;20020;-85
2022/12/08 03:49:34;;;;;;;1.52;0.50;;;3.90;99.90;;;;;;6169383;23;20091;-86
2022/12/08 03:52:07;;;;;;;3.40;0.50;;;3.20;99.90;;;;;;6215481;23;20024;-86
2022/12/08 03:54:48;;;;;;;4.63;0.77;;;3.50;99.90;;;;;;6190458;23;20024;-87
2022/12/08 04:00:23;;;;;;;4.90;0.77;;;3.30;99.90;;;;;;6195181;23;20093;-87
2022/12/08 04:02:54;;;;;;;2.72;1.05;;;3.50;99.90;;;;;;6188922;23;20012;-86
2022/12/08 04:05:33;;;;;;;2.15;0.55;;;3.40;99.90;;;;;;6163855;23;20024;-84
2022/12/08 04:08:04;;;;;;;1.98;0.50;;;3.70;99.90;;;;;;6186326;23;20031;-85
2022/12/08 04:10:40;;;;;;;3.50;0.63;;;4.80;99.90;;;;;;6187300;23;20020;-89
2022/12/08 04:13:14;;;;;;;0.75;0.50;;;3.50;99.90;;;;;;6187936;23;20024;-88
2022/12/08 04:15:56;;;;;;;5.68;0.77;;;4.00;99.90;;;;;;6162622;23;20020;-86
2022/12/08 04:18:27;;;;;;;4.22;0.80;;;3.50;99.90;;;;;;6211938;23;20022;-87
2022/12/08 04:21:05;;;;;;;;;;;;;;;;;;;;;
2022/12/08 04:23:36;;;;;;;4.35;0.80;;;3.50;99.90;;;;;;6190428;23;20024;-88
2022/12/08 04:26:02;;;;;;;2.72;0.60;;;3.60;99.90;;;;;;6212768;23;20074;-85
2022/12/08 04:28:35;;;;;;;1.08;0.40;;;3.60;99.90;;;;;;6213752;23;20131;-88
2022/12/08 04:31:13;;;;;;;2.90;0.63;;;3.40;99.90;;;;;;6189078;23;20024;-85
2022/12/08 04:33:41;;;;;;;;;;;4.80;99.90;;;;;;6189682;23;20016;-85
2022/12/08 04:36:08;;;;;;;2.22;0.60;;;3.50;99.90;;;;;;6214419;23;19926;-85
2022/12/08 04:38:40;;;;;;;1.65;0.60;;;3.50;99.90;;;;;;6188548;23;20016;-86
2022/12/08 04:41:06;;;;;;;2.28;0.60;;;3.50;99.90;;;;;;6213892;23;20020;-84
2022/12/08 04:43:43;;;;;;;4.45;0.82;;;3.50;99.90;;;;;;6189261;23;20062;-88
2022/12/08 04:46:12;;;;;;;0.95;0.32;;;3.60;99.90;;;;;;6189616;23;20024;-86
2022/12/08 04:48:41;;;;;;;1.70;0.50;;;5.10;99.90;;;;;;6189425;23;20020;-86
2022/12/08 04:51:19;;;;;;;3.22;0.90;;;3.80;99.90;;;;;;6208993;23;20095;-85
2022/12/08 04:53:48;;;;;;;2.50;0.65;;;3.80;99.90;;;;;;6184637;23;20487;-85
2022/12/08 04:56:22;;;;;;;4.80;0.63;;;3.80;99.90;;;;;;6186307;23;20142;-89
2022/12/08 04:58:58;;;;;;;3.50;0.80;;;3.60;99.90;;;;;;6187560;23;20016;-86
2022/12/08 05:01:33;;;;;;;2.95;0.80;;;5.40;99.90;;;;;;6213841;23;20094;-89
2022/12/08 05:04:10;;;;;;;3.50;0.50;;;5.20;99.90;;;;;;6210497;23;20026;-87
2022/12/08 05:06:38;;;;;;;1.52;0.50;;;3.70;99.90;;;;;;6160994;23;20024;-89
2022/12/08 05:09:09;;;;;;;3.28;0.90;;;3.60;99.90;;;;;;6188675;23;20744;-86
2022/12/08 05:11:35;;;;;;;3.80;0.68;;;3.70;99.90;;;;;;6187712;23;20054;-90
2022/12/08 05:14:03;;;;;;;3.65;0.80;;;4.80;99.90;;;;;;6188245;23;20031;-85
2022/12/08 05:16:29;;;;;;;3.72;0.85;;;5.10;99.90;;;;;;6187832;23;20024;-86
2022/12/08 05:18:55;;;;;;;4.95;0.77;;;3.80;99.90;;;;;;6184818;23;20016;-87
2022/12/08 05:21:24;;;;;;;4.20;1.45;;;3.80;99.90;;;;;;6185230;23;20112;-87
2022/12/08 05:23:53;;;;;;;1.92;0.80;;;3.80;99.90;;;;;;6184557;23;20024;-88
2022/12/08 05:26:28;;;;;;;2.72;0.60;;;4.00;99.90;;;;;;6184932;23;20198;-87
2022/12/08 05:28:54;;;;;;;5.57;1.15;;;3.30;99.90;;;;;;6186612;23;20051;-86
2022/12/08 05:31:24;;;;;;;5.60;0.82;;;3.70;99.90;;;;;;6189023;23;20024;-87
2022/12/08 05:33:54;;;;;;;3.75;0.90;;;3.80;99.90;;;;;;6188032;23;20436;-86
2022/12/08 05:36:24;;;;;;;3.70;0.70;;;2.50;99.90;;;;;;6212435;23;20316;-87
2022/12/08 05:38:49;;;;;;;1.80;0.60;;;4.20;99.90;;;;;;6213331;23;20012;-87
2022/12/08 05:41:20;;;;;;;3.92;0.80;;;3.40;99.90;;;;;;6163351;23;20012;-87
2022/12/08 05:43:49;;;;;;;1.67;0.52;;;2.10;99.90;;;;;;6188942;23;20027;-87
2022/12/08 05:46:27;;;;;;;2.47;0.70;;;3.60;99.90;;;;;;6213400;23;20112;-88
2022/12/08 05:48:58;;;;;;;1.90;0.73;;;3.90;99.90;;;;;;6187746;23;20428;-86
2022/12/08 05:51:25;;;;;;;4.90;0.95;;;3.40;99.90;;;;;;6212077;23;20020;-86
2022/12/08 05:53:52;;;;;;;2.78;0.82;;;3.60;99.90;;;;;;6164236;23;20020;-86
2022/12/08 05:56:22;;;;;;;3.47;0.85;;;2.40;99.90;;;;;;6214873;23;20012;-86
2022/12/08 05:58:51;;;;;;;4.60;1.00;;;3.50;99.90;;;;;;6184337;23;20154;-87
2022/12/08 06:01:46;;;;;;;4.28;0.90;;;3.60;99.90;;;;;;6160219;23;20051;-87
2022/12/08 06:04:17;;;;;;;6.60;1.50;;;3.50;99.90;;;;;;6155254;23;20194;-86
2022/12/08 06:06:54;;;;;;;3.55;1.05;;;3.30;99.90;;;;;;6158318;23;20078;-86
2022/12/08 06:09:20;;;;;;;5.25;1.10;;;3.30;99.90;;;;;;6137555;23;20016;-87
2022/12/08 06:11:46;;;;;;;4.45;1.13;;;3.50;99.90;;;;;;6153527;23;20103;-87
2022/12/08 06:14:15;;;;;;;3.92;1.00;;;5.10;99.90;;;;;;6159807;23;20071;-87
2022/12/08 06:16:59;;;;;;;;;;;;;;;;;;;;;
2022/12/08 06:19:25;;;;;;;2.00;0.90;;;3.30;99.90;;;;;;6185169;23;20020;-87
2022/12/08 06:21:53;;;;;;;8.13;1.40;;;3.40;99.90;;;;;;6134168;23;20023;-85
2022/12/08 06:24:24;;;;;;;5.15;1.00;;;1.60;99.90;;;;;;6185691;23;20020;-86
2022/12/08 06:26:54;;;;;;;4.68;1.58;;;3.00;99.90;;;;;;6136961;23;20025;-88
2022/12/08 06:29:30;;;;;;;4.43;1.20;;;3.20;99.90;;;;;;6162325;23;20024;-86
2022/12/08 06:31:56;;;;;;;;;;;4.10;99.90;;;;;;6161251;23;20375;-88
2022/12/08 06:34:24;;;;;;;4.03;1.07;;;1.20;99.90;;;;;;6159987;23;20035;-87
2022/12/08 06:36:50;;;;;;;5.15;1.58;;;3.00;99.90;;;;;;6158349;23;20255;-87
2022/12/08 06:39:19;;;;;;;6.57;1.20;;;1.20;99.90;;;;;;6185263;23;20020;-88
2022/12/08 06:44:38;;;;;;;5.13;1.30;;;1.90;99.90;;;;;;6163876;23;20056;-87
2022/12/08 06:47:06;;;;;;;8.43;1.30;;;2.70;99.90;;;;;;6160032;23;20012;-87
2022/12/08 06:49:35;;;;;;;5.53;1.27;;;;;;;;;;6160239;23;20020;-87
2022/12/08 06:52:01;;;;;;;5.38;1.40;;;2.70;99.90;;;;;;6159601;23;20029;-88
2022/12/08 06:54:29;;;;;;;9.50;1.65;;;2.90;99.90;;;;;;6160446;23;20031;-87
2022/12/08 06:56:55;;;;;;;5.57;1.13;;;2.70;99.90;;;;;;6160194;23;20020;-87
2022/12/08 06:59:30;;;;;;;4.63;1.20;;;2.70;99.90;;;;;;6156088;23;20477;-87
2022/12/08 07:02:02;;;;;;;5.18;1.40;;;0.90;99.90;;;;;;6192311;23;20020;-88
2022/12/08 07:04:36;;;;;;;4.68;1.33;;;1.10;99.90;;;;;;6189474;23;20074;-87
2022/12/08 07:07:04;;;;;;;5.15;1.42;;;2.60;99.90;;;;;;6166074;23;20027;-86
2022/12/08 07:09:32;;;;;;;3.63;1.35;;;4.80;99.90;;;;;;6214881;23;20016;-87
2022/12/08 07:11:58;;;;;;;6.00;2.67;;;;;;;;;;6189120;23;20377;-86
2022/12/08 07:14:31;;;;;;;2.97;1.58;;;2.40;99.90;;;;;;6214767;23;20447;-86
2022/12/08 07:17:01;;;;;;;2.30;1.10;;;2.30;99.90;;;;;;6189122;23;20030;-86
2022/12/08 07:19:34;;;;;;;2.22;1.02;;;2.30;99.90;;;;;;6190518;23;20083;-87
2022/12/08 07:22:00;;;;;;;3.00;1.13;;;2.40;99.90;;;;;;6214663;23;20082;-88
2022/12/08 07:24:32;;;;;;;2.90;0.88;;;2.20;99.90;;;;;;6190169;23;20688;-84
2022/12/08 07:26:58;;;;;;;2.88;0.82;;;4.10;99.90;;;;;;6189500;23;20030;-84
2022/12/08 07:29:24;;;;;;;3.30;1.50;;;1.50;99.90;;;;;;6190153;23;20024;-87
2022/12/08 07:31:49;;;;;;;2.58;1.00;;;3.10;99.90;;;;;;6190867;23;20023;-90
2022/12/08 07:34:15;;;;;;;3.45;0.90;;;0.90;99.90;;;;;;6190842;23;20459;-87
2022/12/08 07:36:41;;;;;;;8.77;1.42;;;2.40;99.90;;;;;;6211703;23;20024;-85
2022/12/08 07:39:07;;;;;;;7.07;1.55;;;3.70;99.90;;;;;;6186271;23;20016;-86
2022/12/08 07:41:33;;;;;;;3.63;1.17;;;2.40;99.90;;;;;;6186036;23;20518;-87
2022/12/08 07:44:03;;;;;;;5.55;1.00;;;2.30;99.90;;;;;;6161975;23;20016;-86
2022/12/08 07:46:29;;;;;;;5.82;1.63;;;3.50;99.90;;;;;;6186662;23;20024;-86
2022/12/08 07:48:55;;;;;;;5.28;1.65;;;2.90;99.90;;;;;;6185754;23;20012;-85
2022/12/08 07:51:24;;;;;;;6.10;2.28;;;4.10;99.90;;;;;;6187675;23;20020;-86
2022/12/08 07:53:51;;;;;;;5.80;2.72;;;2.30;99.90;;;;;;6164524;23;20031;-91
2022/12/08 07:56:20;;;;;;;6.18;1.50;;;2.10;99.90;;;;;;6190666;23;20352;-85
2022/12/08 07:58:49;;;;;;;5.07;1.40;;;3.20;99.90;;;;;;6214305;23;20020;-87
2022/12/08 08:01:30;;;;;;;7.90;1.33;;;2.40;99.90;;;;;;6192175;23;20437;-85
2022/12/08 08:04:00;;;;;;;2.78;1.10;;;2.20;99.90;;;;;;6190188;23;20042;-85
2022/12/08 08:06:26;;;;;;;4.03;1.35;;;2.60;99.90;;;;;;6217291;23;20094;-86
2022/12/08 08:08:53;;;;;;;3.38;1.00;;;2.10;99.90;;;;;;6192496;23;20020;-87
2022/12/08 08:11:19;;;;;;;5.32;0.98;;;2.30;99.90;;;;;;6214499;23;20020;-88
2022/12/08 08:13:48;;;;;;;4.05;1.20;;;4.00;99.90;;;;;;6166169;23;20075;-86
2022/12/08 08:16:14;;;;;;;2.72;1.10;;;3.90;99.90;;;;;;6190236;23;20099;-86
2022/12/08 08:18:45;;;;;;;3.38;0.90;;;2.60;99.90;;;;;;6191135;23;20055;-87
2022/12/08 08:21:11;;;;;;;4.03;1.08;;;4.10;99.90;;;;;;6189378;23;20105;-87
2022/12/08 08:23:45;;;;;;;3.17;1.10;;;2.30;99.90;;;;;;6214947;23;20451;-86
2022/12/08 08:26:18;;;;;;;3.33;1.02;;;2.70;99.90;;;;;;6190020;23;20144;-85
2022/12/08 08:28:53;;;;;;;3.53;1.20;;;2.60;99.90;;;;;;6191455;23;20016;-87
2022/12/08 08:31:40;;;;;;;5.85;1.30;;;2.30;99.90;;;;;;6170383;23;20395;-88
2022/12/08 08:34:08;;;;;;;3.13;1.15;;;4.10;99.90;;;;;;6187901;23;20711;-90
2022/12/08 08:36:36;;;;;;;6.05;1.00;;;2.30;99.90;;;;;;6191106;23;20185;-83
2022/12/08 08:39:05;;;;;;;6.93;1.63;;;4.30;99.90;;;;;;6190755;23;20055;-89
2022/12/08 08:41:34;;;;;;;4.10;1.40;;;4.00;99.90;;;;;;6214214;23;20051;-88
2022/12/08 08:44:25;;;;;;;5.47;1.50;;;2.80;99.90;;;;;;6191704;23;20090;-85
2022/12/08 08:47:00;;;;;;;6.40;1.48;;;2.60;99.90;;;;;;6192792;23;20090;-90
2022/12/08 08:49:28;;;;;;;3.08;1.23;;;1.60;99.90;;;;;;6191263;23;20012;-86
2022/12/08 08:51:59;;;;;;;6.97;1.38;;;3.90;99.90;;;;;;6189529;23;20728;-90
2022/12/08 08:54:30;;;;;;;5.20;1.35;;;3.60;99.90;;;;;;6188387;23;20051;-89
2022/12/08 08:57:02;;;;;;;9.98;1.88;;;5.40;99.90;;;;;;6189180;23;20012;-87
2022/12/08 08:59:28;;;;;;;3.80;1.70;;;4.50;99.90;;;;;;6191013;23;20440;-87
2022/12/08 09:01:59;;;;;;;7.00;1.77;;;5.30;99.90;;;;;;6164433;23;20020;-90
2022/12/08 09:04:24;;;;;;;4.70;1.80;;;5.50;99.90;;;;;;6166433;23;20099;-87
2022/12/08 09:06:58;;;;;;;3.47;1.35;;;5.10;99.90;;;;;;6191161;23;20058;-87
2022/12/08 09:09:26;;;;;;;12.00;2.33;;;4.90;99.90;;;;;;6167614;23;20109;-88
2022/12/08 09:11:54;;;;;;;7.78;1.90;;;5.10;99.90;;;;;;6191436;23;20103;-87
2022/12/08 09:46:22;;;;;;;1.95;0.70;;;4.30;99.90;;;;;;6167652;23;20390;-87
2022/12/08 09:48:56;;;;;;;2.58;0.70;;;4.20;99.90;;;;;;6153369;23;20025;-85
2022/12/08 09:51:30;;;;;;;2.25;0.88;;;5.50;99.90;;;;;;6154416;23;20029;-87
2022/12/08 09:54:02;;;;;;;2.25;1.20;;;4.50;99.90;;;;;;6158003;23;20024;-89
2022/12/08 09:56:34;;;;;;;2.13;0.85;;;4.10;99.90;;;;;;6154330;23;20021;-83
2022/12/08 09:59:12;;;;;;;2.88;0.80;;;5.10;99.90;;;;;;6152283;23;20094;-83
2022/12/08 10:01:42;;;;;;;3.97;1.25;;;4.00;99.90;;;;;;6152245;23;20020;-83
2022/12/08 10:04:25;;;;;;;1.50;0.80;;;4.30;99.90;;;;;;6128602;23;20953;-84
2022/12/08 10:06:56;;;;;;;4.05;0.80;;;4.20;99.90;;;;;;6153210;23;20021;-83
2022/12/08 10:09:31;;;;;;;1.15;0.50;;;4.10;99.90;;;;;;6160512;23;20023;-83
2022/12/08 10:12:10;;;;;;;2.42;0.68;;;4.10;99.90;;;;;;6153954;23;20017;-83
2022/12/08 10:15:15;;;;;;;2.35;0.70;;;4.10;99.90;;;;;;6176784;23;20099;-84
2022/12/08 10:17:47;;;;;;;3.15;0.90;;;4.20;99.90;;;;;;6033109;23;20022;-83
2022/12/08 10:20:15;;;;;;;5.43;0.52;;;5.90;99.90;;;;;;6009467;23;20023;-83
2022/12/08 10:22:42;;;;;;;3.70;0.98;;;4.10;99.90;;;;;;6094716;23;20044;-83
2022/12/08 10:25:19;;;;;;;4.80;0.98;;;5.80;99.90;;;;;;6151146;23;20545;-83
2022/12/08 10:27:52;;;;;;;1.35;0.60;;;4.30;99.90;;;;;;6151343;23;20021;-83
2022/12/08 10:30:21;;;;;;;2.25;0.55;;;4.00;99.90;;;;;;6151537;23;20326;-83
2022/12/08 10:32:50;;;;;;;1.55;0.47;;;5.50;99.90;;;;;;6102728;23;20104;-83
2022/12/08 10:35:18;;;;;;;1.88;0.70;;;6.00;99.90;;;;;;6151371;23;20025;-83
2022/12/08 10:38:00;;;;;;;4.60;1.13;;;6.90;99.90;;;;;;6150936;23;20017;-82
2022/12/08 10:40:34;;;;;;;1.98;0.70;;;8.50;99.90;;;;;;6127328;23;20064;-83
2022/12/08 10:43:01;;;;;;;3.05;0.77;;;10.00;99.90;;;;;;6127042;23;20028;-84
2022/12/08 10:45:40;;;;;;;1.60;0.90;;;10.30;99.90;;;;;;6103026;23;20122;-84
2022/12/08 10:48:20;;;;;;;4.00;1.98;;;9.90;99.90;;;;;;6127807;23;20032;-80
2022/12/08 10:50:49;;;;;;;4.50;1.38;;;9.50;99.90;;;;;;6152399;23;20025;-82
2022/12/08 10:53:43;;;;;;;3.88;1.00;;;9.00;99.90;;;;;;6153609;23;20032;-83
2022/12/08 10:56:16;;;;;;;1.30;0.80;;;8.60;99.90;;;;;;6151729;23;20119;-84
2022/12/08 10:58:44;;;;;;;1.58;0.50;;;8.20;99.90;;;;;;6134103;23;20021;-83
2022/12/08 11:01:21;;;;;;;1.80;0.60;;;7.00;99.90;;;;;;6166336;23;20029;-83
2022/12/08 11:03:51;;;;;;;2.67;0.80;;;7.60;99.90;;;;;;6154630;23;20023;-84
2022/12/08 11:06:21;;;;;;;1.13;0.60;;;7.30;99.90;;;;;;6178659;23;20017;-83
2022/12/08 11:08:56;;;;;;;1.20;0.50;;;6.90;99.90;;;;;;6166570;23;20017;-83
2022/12/08 11:11:56;;;;;;;2.10;0.52;;;5.30;99.90;;;;;;6167552;23;20029;-83
2022/12/08 11:15:02;;;;;;;2.03;0.57;;;6.60;99.90;;;;;;6149628;23;20029;-84
2022/12/08 11:17:35;;;;;;;2.80;0.60;;;6.10;99.90;;;;;;6096420;23;20017;-83
2022/12/08 11:20:10;;;;;;;1.85;0.60;;;6.00;99.90;;;;;;6151676;23;20021;-82
2022/12/08 11:22:41;;;;;;;2.08;0.70;;;7.00;99.90;;;;;;6175725;23;20349;-82
2022/12/08 11:25:06;;;;;;;1.77;0.70;;;7.00;99.90;;;;;;6149036;23;20091;-82
2022/12/08 11:27:35;;;;;;;1.58;0.70;;;5.80;99.90;;;;;;6152330;23;20014;-81
2022/12/08 11:30:22;;;;;;;2.53;0.70;;;5.90;99.90;;;;;;6149606;23;20079;-85
2022/12/08 11:32:53;;;;;;;3.28;0.90;;;5.90;99.90;;;;;;6148789;23;20017;-81
2022/12/08 11:35:34;;;;;;;3.08;0.70;;;6.00;99.90;;;;;;6152053;23;20071;-81
2022/12/08 11:38:10;;;;;;;2.92;0.70;;;6.00;99.90;;;;;;6149274;23;20035;-82
2022/12/08 11:40:41;;;;;;;2.53;0.73;;;6.50;99.90;;;;;;6148332;23;20053;-81
2022/12/08 11:43:32;;;;;;;1.88;0.60;;;6.00;99.90;;;;;;6146213;23;20025;-81
2022/12/08 11:46:19;;;;;;;2.42;0.55;;;6.10;99.90;;;;;;6149041;23;20136;-79
2022/12/08 11:48:58;;;;;;;2.55;0.70;;;6.00;99.90;;;;;;6147118;23;20152;-82
2022/12/08 11:51:47;;;;;;;1.38;0.70;;;6.10;99.90;;;;;;6148624;23;20025;-81
2022/12/08 11:54:34;;;;;;;1.25;0.63;;;6.10;99.90;;;;;;6150540;23;20017;-82
2022/12/08 11:57:02;;;;;;;3.65;0.88;;;6.10;99.90;;;;;;6149605;23;20075;-82
2022/12/08 11:59:40;;;;;;;2.20;0.60;;;6.20;99.90;;;;;;6150627;23;20028;-82
2022/12/08 12:02:17;;;;;;;2.40;0.60;;;6.20;99.90;;;;;;6149647;23;20433;-81
2022/12/08 12:04:52;;;;;;;3.33;0.68;;;6.30;99.90;;;;;;6150626;23;20017;-81
2022/12/08 12:07:28;;;;;;;1.02;0.77;;;6.20;99.90;;;;;;6151229;23;20107;-84
2022/12/08 12:10:06;;;;;;;3.83;1.15;;;7.60;99.90;;;;;;6178184;23;20017;-82
2022/12/08 12:12:50;;;;;;;1.95;0.90;;;5.90;99.90;;;;;;6155467;23;20017;-84
2022/12/08 12:15:45;;;;;;;2.00;0.90;;;5.90;99.90;;;;;;6154974;23;20021;-84
2022/12/08 12:18:16;;;;;;;1.38;0.70;;;5.80;99.90;;;;;;6100061;23;20013;-84
2022/12/08 12:20:51;;;;;;;3.45;0.60;;;5.80;99.90;;;;;;6174720;23;20123;-86
2022/12/08 12:23:41;;;;;;;2.67;0.70;;;5.80;99.90;;;;;;6151304;23;20150;-85
2022/12/08 12:26:16;;;;;;;2.63;0.70;;;5.70;99.90;;;;;;6154023;23;20837;-86
2022/12/08 12:28:51;;;;;;;1.33;0.50;;;5.70;99.90;;;;;;6150336;23;20020;-86
2022/12/08 12:31:35;;;;;;;3.20;0.60;;;5.60;99.90;;;;;;6148713;23;20155;-84
2022/12/08 12:34:14;;;;;;;1.55;0.80;;;5.60;99.90;;;;;;6147550;23;20103;-86
2022/12/08 12:36:57;;;;;;;1.27;0.50;;;5.50;99.90;;;;;;6150427;23;20425;-86
2022/12/08 12:39:31;;;;;;;1.00;0.52;;;5.40;99.90;;;;;;6126860;23;20436;-85
2022/12/08 12:42:00;;;;;;;1.55;0.50;;;5.40;99.90;;;;;;6149846;23;20087;-85
2022/12/08 12:44:32;;;;;;;1.67;0.80;;;5.30;99.90;;;;;;6152335;23;20021;-85
2022/12/08 12:47:00;;;;;;;2.20;0.70;;;6.60;99.90;;;;;;6152255;23;20021;-84
2022/12/08 12:49:38;;;;;;;4.28;0.70;;;5.50;99.90;;;;;;6152432;23;20155;-85
2022/12/08 12:52:19;;;;;;;1.63;0.50;;;6.00;99.90;;;;;;6152163;23;20479;-85
2022/12/08 12:54:48;;;;;;;1.73;0.77;;;5.10;99.90;;;;;;6153980;23;20023;-87
2022/12/08 12:57:15;;;;;;;2.75;0.80;;;6.50;99.90;;;;;;6154306;23;20067;-87
2022/12/08 13:00:04;;;;;;;4.25;1.02;;;5.00;99.90;;;;;;6158814;23;20021;-84
2022/12/08 13:02:30;;;;;;;2.08;0.80;;;4.90;99.90;;;;;;6169071;23;20021;-86
2022/12/08 13:05:14;;;;;;;2.70;0.65;;;6.60;99.90;;;;;;6154078;23;20032;-85
2022/12/08 13:08:07;;;;;;;1.13;0.60;;;4.80;99.90;;;;;;6156575;23;20145;-86
2022/12/08 13:10:37;;;;;;;4.57;1.70;;;4.80;99.90;;;;;;6165819;23;20025;-86
2022/12/08 13:13:08;;;;;;;7.15;4.38;;;4.70;99.90;;;;;;6133921;23;20021;-85
2022/12/08 13:15:48;;;;;;;4.40;1.60;;;4.70;99.90;;;;;;6151868;23;20333;-85
2022/12/08 13:18:30;;;;;;;3.08;1.40;;;4.70;99.90;;;;;;6151174;23;20027;-87
2022/12/08 13:21:10;;;;;;;2.75;0.80;;;4.70;99.90;;;;;;6177248;23;20318;-85
2022/12/08 13:23:36;;;;;;;1.30;0.70;;;4.60;99.90;;;;;;6151668;23;20111;-86
2022/12/08 13:26:08;;;;;;;4.00;0.90;;;4.50;99.90;;;;;;6150517;23;20315;-86
2022/12/08 13:29:03;;;;;;;3.90;1.33;;;4.50;99.90;;;;;;6151867;23;20017;-85
2022/12/08 13:31:39;;;;;;;1.10;0.60;;;4.50;99.90;;;;;;6151698;23;20032;-85
2022/12/08 13:34:33;;;;;;;1.60;0.60;;;5.50;99.90;;;;;;6150407;23;20112;-86
2022/12/08 13:37:17;;;;;;;1.77;0.60;;;4.30;99.90;;;;;;6150780;23;20056;-85
2022/12/08 13:39:53;;;;;;;1.40;0.70;;;4.30;99.90;;;;;;6151762;23;20108;-86
2022/12/08 13:42:46;;;;;;;2.25;0.55;;;4.20;99.90;;;;;;6151923;23;20021;-86
2022/12/08 13:45:16;;;;;;;2.05;0.70;;;2.60;99.90;;;;;;6150220;23;20017;-87
2022/12/08 13:48:04;;;;;;;3.58;0.57;;;4.10;99.90;;;;;;6151606;23;20372;-85
2022/12/08 13:50:49;;;;;;;1.48;0.60;;;4.00;99.90;;;;;;6126558;23;20072;-84
2022/12/08 13:53:23;;;;;;;1.83;0.50;;;3.90;99.90;;;;;;6126539;23;20352;-85
2022/12/08 13:55:58;;;;;;;1.65;0.65;;;3.80;99.90;;;;;;6151546;23;20692;-84
2022/12/08 13:58:30;;;;;;;1.55;0.68;;;3.70;99.90;;;;;;6150523;23;20527;-83
2022/12/08 14:01:14;;;;;;;3.83;0.93;;;3.90;99.90;;;;;;6151563;23;20057;-89
2022/12/08 14:03:52;;;;;;;2.95;0.90;;;2.60;99.90;;;;;;6152044;23;20031;-83
2022/12/08 14:06:29;;;;;;;4.07;1.20;;;3.60;99.90;;;;;;6148507;23;20079;-83
2022/12/08 14:08:58;;;;;;;4.43;1.25;;;3.40;99.90;;;;;;6152592;23;20377;-86
2022/12/08 14:11:38;;;;;;;3.60;1.95;;;5.10;99.90;;;;;;6150509;23;20017;-84
2022/12/08 14:14:17;;;;;;;5.75;2.92;;;3.30;99.90;;;;;;6151480;23;20013;-84
2022/12/08 14:16:52;;;;;;;7.70;3.45;;;3.20;99.90;;;;;;6151434;23;20523;-84
2022/12/08 14:19:21;;;;;;;11.50;5.38;;;4.60;99.90;;;;;;6126336;23;20404;-84
2022/12/08 14:21:56;;;;;;;14.57;5.80;;;4.20;99.90;;;;;;6151085;23;20056;-84
2022/12/08 14:24:24;;;;;;;14.03;6.63;;;4.10;99.90;;;;;;6150918;23;20090;-85
2022/12/08 14:26:53;;;;;;;15.82;7.80;;;3.00;99.90;;;;;;6102252;23;20071;-84
2022/12/08 14:29:30;;;;;;;18.00;8.50;;;4.60;99.90;;;;;;6127437;23;20017;-86
2022/12/08 14:31:57;;;;;;;20.83;10.32;;;2.90;99.90;;;;;;6154193;23;20457;-84